sensor_id;sensor_type;location;lat;lon;timestamp;P1;durP1;ratioP1;P2;durP2;ratioP2
63089;SDS011;49174;43.198;27.824;2022-10-16T00:01:48;12.10;;;7.25;;
63089;SDS011;49174;43.198;27.824;2022-10-16T00:04:13;10.68;;;6.78;;
63089;SDS011;49174;43.198;27.824;2022-10-16T00:06:39;9.52;;;6.97;;
63089;SDS011;49174;43.198;27.824;2022-10-16T00:09:06;8.32;;;6.78;;
63089;SDS011;49174;43.198;27.824;2022-10-16T00:11:33;34.85;;;23.77;;
63089;SDS011;49174;43.198;27.824;2022-10-16T00:14:03;12.32;;;9.48;;
63089;SDS011;49174;43.198;27.824;2022-10-16T00:16:32;10.55;;;6.93;;
63089;SDS011;49174;43.198;27.824;2022-10-16T00:18:59;9.48;;;6.53;;
63089;SDS011;49174;43.198;27.824;2022-10-16T00:21:25;7.95;;;6.38;;
63089;SDS011;49174;43.198;27.824;2022-10-16T00:23:53;9.43;;;6.13;;
63089;SDS011;49174;43.198;27.824;2022-10-16T00:26:21;9.80;;;6.80;;
63089;SDS011;49174;43.198;27.824;2022-10-16T00:28:48;10.05;;;6.93;;
63089;SDS011;49174;43.198;27.824;2022-10-16T00:31:15;7.95;;;5.57;;
63089;SDS011;49174;43.198;27.824;2022-10-16T00:33:41;8.90;;;5.40;;
63089;SDS011;49174;43.198;27.824;2022-10-16T00:36:09;11.82;;;6.03;;
63089;SDS011;49174;43.198;27.824;2022-10-16T00:38:37;9.13;;;5.63;;
63089;SDS011;49174;43.198;27.824;2022-10-16T00:41:03;8.02;;;5.50;;
63089;SDS011;49174;43.198;27.824;2022-10-16T00:43:37;7.25;;;6.03;;
63089;SDS011;49174;43.198;27.824;2022-10-16T00:46:17;8.32;;;5.68;;
63089;SDS011;49174;43.198;27.824;2022-10-16T00:49:28;9.55;;;5.65;;
63089;SDS011;49174;43.198;27.824;2022-10-16T00:51:38;9.23;;;5.70;;
63089;SDS011;49174;43.198;27.824;2022-10-16T00:54:13;10.68;;;5.45;;
63089;SDS011;49174;43.198;27.824;2022-10-16T00:56:41;5.25;;;4.60;;
63089;SDS011;49174;43.198;27.824;2022-10-16T00:59:41;9.25;;;5.20;;
63089;SDS011;49174;43.198;27.824;2022-10-16T01:02:05;8.02;;;4.72;;
63089;SDS011;49174;43.198;27.824;2022-10-16T01:04:36;11.75;;;4.95;;
63089;SDS011;49174;43.198;27.824;2022-10-16T01:07:13;8.45;;;5.05;;
63089;SDS011;49174;43.198;27.824;2022-10-16T01:12:59;7.32;;;5.18;;
63089;SDS011;49174;43.198;27.824;2022-10-16T01:15:18;6.63;;;4.45;;
63089;SDS011;49174;43.198;27.824;2022-10-16T01:28:52;9.07;;;4.45;;
63089;SDS011;49174;43.198;27.824;2022-10-16T01:31:23;8.77;;;4.80;;
63089;SDS011;49174;43.198;27.824;2022-10-16T01:34:15;7.18;;;4.75;;
63089;SDS011;49174;43.198;27.824;2022-10-16T01:36:44;6.78;;;5.07;;
63089;SDS011;49174;43.198;27.824;2022-10-16T01:39:14;11.02;;;5.10;;
63089;SDS011;49174;43.198;27.824;2022-10-16T01:41:45;7.90;;;5.07;;
63089;SDS011;49174;43.198;27.824;2022-10-16T01:44:21;6.15;;;4.72;;
63089;SDS011;49174;43.198;27.824;2022-10-16T01:46:50;8.25;;;5.43;;
63089;SDS011;49174;43.198;27.824;2022-10-16T01:49:20;6.43;;;4.22;;
63089;SDS011;49174;43.198;27.824;2022-10-16T01:51:49;7.82;;;5.50;;
63089;SDS011;49174;43.198;27.824;2022-10-16T01:54:18;7.78;;;5.03;;
63089;SDS011;49174;43.198;27.824;2022-10-16T01:56:47;6.80;;;5.40;;
63089;SDS011;49174;43.198;27.824;2022-10-16T01:59:16;9.35;;;4.78;;
63089;SDS011;49174;43.198;27.824;2022-10-16T02:01:49;8.35;;;5.25;;
63089;SDS011;49174;43.198;27.824;2022-10-16T02:06:49;5.72;;;4.40;;
63089;SDS011;49174;43.198;27.824;2022-10-16T02:09:15;7.40;;;4.60;;
63089;SDS011;49174;43.198;27.824;2022-10-16T02:11:42;5.70;;;4.28;;
63089;SDS011;49174;43.198;27.824;2022-10-16T02:14:09;5.03;;;4.40;;
63089;SDS011;49174;43.198;27.824;2022-10-16T02:16:35;8.77;;;4.43;;
63089;SDS011;49174;43.198;27.824;2022-10-16T02:19:08;6.55;;;3.90;;
63089;SDS011;49174;43.198;27.824;2022-10-16T02:21:40;7.18;;;3.67;;
63089;SDS011;49174;43.198;27.824;2022-10-16T02:27:35;5.72;;;3.75;;
63089;SDS011;49174;43.198;27.824;2022-10-16T02:30:11;7.57;;;4.25;;
63089;SDS011;49174;43.198;27.824;2022-10-16T02:32:44;6.57;;;3.80;;
63089;SDS011;49174;43.198;27.824;2022-10-16T02:35:13;7.63;;;3.53;;
63089;SDS011;49174;43.198;27.824;2022-10-16T02:37:42;4.85;;;4.05;;
63089;SDS011;49174;43.198;27.824;2022-10-16T02:40:08;4.78;;;3.55;;
63089;SDS011;49174;43.198;27.824;2022-10-16T02:42:35;5.75;;;3.85;;
63089;SDS011;49174;43.198;27.824;2022-10-16T02:45:03;4.45;;;3.05;;
63089;SDS011;49174;43.198;27.824;2022-10-16T02:47:29;5.75;;;3.70;;
63089;SDS011;49174;43.198;27.824;2022-10-16T02:49:55;6.20;;;4.10;;
63089;SDS011;49174;43.198;27.824;2022-10-16T02:52:20;7.43;;;4.93;;
63089;SDS011;49174;43.198;27.824;2022-10-16T02:54:46;7.35;;;4.95;;
63089;SDS011;49174;43.198;27.824;2022-10-16T02:57:12;5.50;;;4.60;;
63089;SDS011;49174;43.198;27.824;2022-10-16T02:59:37;7.03;;;5.00;;
63089;SDS011;49174;43.198;27.824;2022-10-16T03:02:03;7.57;;;5.25;;
63089;SDS011;49174;43.198;27.824;2022-10-16T03:04:28;5.85;;;4.78;;
63089;SDS011;49174;43.198;27.824;2022-10-16T03:06:54;5.63;;;4.03;;
63089;SDS011;49174;43.198;27.824;2022-10-16T03:09:20;5.68;;;4.10;;
63089;SDS011;49174;43.198;27.824;2022-10-16T03:11:45;7.32;;;4.60;;
63089;SDS011;49174;43.198;27.824;2022-10-16T03:14:11;8.95;;;4.70;;
63089;SDS011;49174;43.198;27.824;2022-10-16T03:16:36;5.53;;;3.70;;
63089;SDS011;49174;43.198;27.824;2022-10-16T03:19:02;8.77;;;4.10;;
63089;SDS011;49174;43.198;27.824;2022-10-16T03:21:27;7.00;;;4.05;;
63089;SDS011;49174;43.198;27.824;2022-10-16T03:23:53;6.57;;;4.13;;
63089;SDS011;49174;43.198;27.824;2022-10-16T03:26:18;7.25;;;3.90;;
63089;SDS011;49174;43.198;27.824;2022-10-16T03:28:44;6.32;;;4.70;;
63089;SDS011;49174;43.198;27.824;2022-10-16T03:31:09;7.53;;;4.38;;
63089;SDS011;49174;43.198;27.824;2022-10-16T03:33:35;5.13;;;4.20;;
63089;SDS011;49174;43.198;27.824;2022-10-16T03:36:00;6.22;;;3.80;;
63089;SDS011;49174;43.198;27.824;2022-10-16T03:38:26;5.57;;;3.97;;
63089;SDS011;49174;43.198;27.824;2022-10-16T03:40:51;5.80;;;3.40;;
63089;SDS011;49174;43.198;27.824;2022-10-16T03:43:17;4.60;;;3.45;;
63089;SDS011;49174;43.198;27.824;2022-10-16T03:45:42;6.20;;;4.30;;
63089;SDS011;49174;43.198;27.824;2022-10-16T03:48:08;5.03;;;3.88;;
63089;SDS011;49174;43.198;27.824;2022-10-16T03:50:34;5.93;;;3.58;;
63089;SDS011;49174;43.198;27.824;2022-10-16T03:52:59;5.82;;;3.78;;
63089;SDS011;49174;43.198;27.824;2022-10-16T03:55:25;5.35;;;4.07;;
63089;SDS011;49174;43.198;27.824;2022-10-16T03:57:50;5.35;;;3.30;;
63089;SDS011;49174;43.198;27.824;2022-10-16T04:00:16;7.22;;;3.67;;
63089;SDS011;49174;43.198;27.824;2022-10-16T04:02:41;7.10;;;3.67;;
63089;SDS011;49174;43.198;27.824;2022-10-16T04:05:07;7.95;;;3.53;;
63089;SDS011;49174;43.198;27.824;2022-10-16T04:07:33;4.18;;;3.00;;
63089;SDS011;49174;43.198;27.824;2022-10-16T04:09:58;5.65;;;3.08;;
63089;SDS011;49174;43.198;27.824;2022-10-16T04:12:24;6.18;;;3.83;;
63089;SDS011;49174;43.198;27.824;2022-10-16T04:14:52;4.80;;;3.30;;
63089;SDS011;49174;43.198;27.824;2022-10-16T04:17:18;5.05;;;3.47;;
63089;SDS011;49174;43.198;27.824;2022-10-16T04:19:43;5.72;;;3.35;;
63089;SDS011;49174;43.198;27.824;2022-10-16T04:22:09;7.30;;;3.45;;
63089;SDS011;49174;43.198;27.824;2022-10-16T04:24:35;5.55;;;3.45;;
63089;SDS011;49174;43.198;27.824;2022-10-16T04:27:00;4.78;;;3.72;;
63089;SDS011;49174;43.198;27.824;2022-10-16T04:29:26;4.82;;;3.40;;
63089;SDS011;49174;43.198;27.824;2022-10-16T04:31:52;6.85;;;3.47;;
63089;SDS011;49174;43.198;27.824;2022-10-16T04:34:18;5.18;;;3.38;;
63089;SDS011;49174;43.198;27.824;2022-10-16T04:36:43;6.30;;;4.05;;
63089;SDS011;49174;43.198;27.824;2022-10-16T04:39:09;6.65;;;4.50;;
63089;SDS011;49174;43.198;27.824;2022-10-16T04:41:34;28.73;;;18.27;;
63089;SDS011;49174;43.198;27.824;2022-10-16T04:44:00;24.55;;;12.18;;
63089;SDS011;49174;43.198;27.824;2022-10-16T04:46:25;121.35;;;60.22;;
63089;SDS011;49174;43.198;27.824;2022-10-16T04:48:51;109.45;;;57.58;;
63089;SDS011;49174;43.198;27.824;2022-10-16T04:51:16;29.27;;;20.00;;
63089;SDS011;49174;43.198;27.824;2022-10-16T04:53:43;27.35;;;18.27;;
63089;SDS011;49174;43.198;27.824;2022-10-16T04:56:09;19.35;;;12.88;;
63089;SDS011;49174;43.198;27.824;2022-10-16T04:58:34;8.93;;;5.30;;
63089;SDS011;49174;43.198;27.824;2022-10-16T05:01:00;9.18;;;4.75;;
63089;SDS011;49174;43.198;27.824;2022-10-16T05:03:25;5.53;;;4.40;;
63089;SDS011;49174;43.198;27.824;2022-10-16T05:05:51;6.55;;;4.40;;
63089;SDS011;49174;43.198;27.824;2022-10-16T05:08:16;7.05;;;4.15;;
63089;SDS011;49174;43.198;27.824;2022-10-16T05:10:42;8.80;;;4.40;;
63089;SDS011;49174;43.198;27.824;2022-10-16T05:13:10;7.32;;;4.68;;
63089;SDS011;49174;43.198;27.824;2022-10-16T05:15:36;5.43;;;4.28;;
63089;SDS011;49174;43.198;27.824;2022-10-16T05:18:02;11.38;;;4.70;;
63089;SDS011;49174;43.198;27.824;2022-10-16T05:20:27;5.32;;;4.43;;
63089;SDS011;49174;43.198;27.824;2022-10-16T05:22:53;7.38;;;4.32;;
63089;SDS011;49174;43.198;27.824;2022-10-16T05:25:19;6.90;;;4.47;;
63089;SDS011;49174;43.198;27.824;2022-10-16T05:27:47;7.70;;;5.43;;
63089;SDS011;49174;43.198;27.824;2022-10-16T05:30:13;7.53;;;4.47;;
63089;SDS011;49174;43.198;27.824;2022-10-16T05:32:39;6.82;;;4.82;;
63089;SDS011;49174;43.198;27.824;2022-10-16T05:35:05;6.95;;;4.65;;
63089;SDS011;49174;43.198;27.824;2022-10-16T05:37:31;7.35;;;4.70;;
63089;SDS011;49174;43.198;27.824;2022-10-16T05:39:57;8.98;;;5.60;;
63089;SDS011;49174;43.198;27.824;2022-10-16T05:42:22;10.05;;;6.55;;
63089;SDS011;49174;43.198;27.824;2022-10-16T05:44:48;6.40;;;5.53;;
63089;SDS011;49174;43.198;27.824;2022-10-16T05:47:13;7.50;;;5.63;;
63089;SDS011;49174;43.198;27.824;2022-10-16T05:49:39;5.97;;;4.30;;
63089;SDS011;49174;43.198;27.824;2022-10-16T05:52:05;5.05;;;3.47;;
63089;SDS011;49174;43.198;27.824;2022-10-16T05:54:30;7.15;;;5.20;;
63089;SDS011;49174;43.198;27.824;2022-10-16T05:56:56;8.25;;;5.43;;
63089;SDS011;49174;43.198;27.824;2022-10-16T05:59:21;8.65;;;5.47;;
63089;SDS011;49174;43.198;27.824;2022-10-16T06:01:47;5.72;;;3.42;;
63089;SDS011;49174;43.198;27.824;2022-10-16T06:04:12;4.32;;;3.17;;
63089;SDS011;49174;43.198;27.824;2022-10-16T06:06:38;6.05;;;4.78;;
63089;SDS011;49174;43.198;27.824;2022-10-16T06:09:04;7.60;;;4.22;;
63089;SDS011;49174;43.198;27.824;2022-10-16T06:11:31;4.72;;;3.72;;
63089;SDS011;49174;43.198;27.824;2022-10-16T06:13:58;8.75;;;3.78;;
63089;SDS011;49174;43.198;27.824;2022-10-16T06:16:27;4.82;;;3.15;;
63089;SDS011;49174;43.198;27.824;2022-10-16T06:18:54;5.82;;;3.67;;
63089;SDS011;49174;43.198;27.824;2022-10-16T06:21:25;6.78;;;3.30;;
63089;SDS011;49174;43.198;27.824;2022-10-16T06:23:51;3.58;;;2.60;;
63089;SDS011;49174;43.198;27.824;2022-10-16T06:26:18;4.35;;;2.95;;
63089;SDS011;49174;43.198;27.824;2022-10-16T06:28:45;8.25;;;3.47;;
63089;SDS011;49174;43.198;27.824;2022-10-16T06:31:11;6.38;;;3.08;;
63089;SDS011;49174;43.198;27.824;2022-10-16T06:33:38;5.65;;;2.75;;
63089;SDS011;49174;43.198;27.824;2022-10-16T06:36:08;6.95;;;3.03;;
63089;SDS011;49174;43.198;27.824;2022-10-16T06:38:35;5.78;;;3.10;;
63089;SDS011;49174;43.198;27.824;2022-10-16T06:41:02;3.00;;;2.70;;
63089;SDS011;49174;43.198;27.824;2022-10-16T06:43:29;5.05;;;3.40;;
63089;SDS011;49174;43.198;27.824;2022-10-16T06:46:00;4.68;;;3.88;;
63089;SDS011;49174;43.198;27.824;2022-10-16T06:48:27;7.50;;;3.50;;
63089;SDS011;49174;43.198;27.824;2022-10-16T06:51:03;5.65;;;2.70;;
63089;SDS011;49174;43.198;27.824;2022-10-16T06:53:32;4.72;;;2.88;;
63089;SDS011;49174;43.198;27.824;2022-10-16T06:56:12;5.72;;;2.10;;
63089;SDS011;49174;43.198;27.824;2022-10-16T06:58:40;3.50;;;1.77;;
63089;SDS011;49174;43.198;27.824;2022-10-16T07:01:06;5.72;;;2.47;;
63089;SDS011;49174;43.198;27.824;2022-10-16T07:03:32;3.10;;;1.85;;
63089;SDS011;49174;43.198;27.824;2022-10-16T07:06:01;5.18;;;2.00;;
63089;SDS011;49174;43.198;27.824;2022-10-16T07:08:30;3.42;;;1.70;;
63089;SDS011;49174;43.198;27.824;2022-10-16T07:11:03;6.38;;;1.95;;
63089;SDS011;49174;43.198;27.824;2022-10-16T07:13:33;4.00;;;2.10;;
63089;SDS011;49174;43.198;27.824;2022-10-16T07:18:57;2.70;;;1.45;;
63089;SDS011;49174;43.198;27.824;2022-10-16T07:21:23;3.47;;;1.40;;
63089;SDS011;49174;43.198;27.824;2022-10-16T07:23:59;6.53;;;1.52;;
63089;SDS011;49174;43.198;27.824;2022-10-16T07:26:29;5.32;;;1.65;;
63089;SDS011;49174;43.198;27.824;2022-10-16T07:28:57;4.35;;;1.48;;
63089;SDS011;49174;43.198;27.824;2022-10-16T07:31:23;5.68;;;1.52;;
63089;SDS011;49174;43.198;27.824;2022-10-16T07:33:49;3.75;;;1.35;;
63089;SDS011;49174;43.198;27.824;2022-10-16T07:36:16;2.78;;;1.70;;
63089;SDS011;49174;43.198;27.824;2022-10-16T07:38:43;3.10;;;1.27;;
63089;SDS011;49174;43.198;27.824;2022-10-16T07:41:10;3.88;;;1.42;;
63089;SDS011;49174;43.198;27.824;2022-10-16T07:43:37;5.25;;;1.42;;
63089;SDS011;49174;43.198;27.824;2022-10-16T07:46:03;3.47;;;1.20;;
63089;SDS011;49174;43.198;27.824;2022-10-16T07:48:30;3.20;;;1.50;;
63089;SDS011;49174;43.198;27.824;2022-10-16T07:50:58;6.53;;;1.60;;
63089;SDS011;49174;43.198;27.824;2022-10-16T07:53:24;3.08;;;1.40;;
63089;SDS011;49174;43.198;27.824;2022-10-16T07:55:50;3.95;;;1.17;;
63089;SDS011;49174;43.198;27.824;2022-10-16T07:58:16;2.38;;;1.05;;
63089;SDS011;49174;43.198;27.824;2022-10-16T08:00:41;6.57;;;1.45;;
63089;SDS011;49174;43.198;27.824;2022-10-16T08:03:10;2.40;;;1.60;;
63089;SDS011;49174;43.198;27.824;2022-10-16T08:05:36;2.17;;;1.23;;
63089;SDS011;49174;43.198;27.824;2022-10-16T08:08:01;4.28;;;1.52;;
63089;SDS011;49174;43.198;27.824;2022-10-16T08:10:27;2.95;;;1.23;;
63089;SDS011;49174;43.198;27.824;2022-10-16T08:12:54;3.10;;;1.20;;
63089;SDS011;49174;43.198;27.824;2022-10-16T08:15:20;2.50;;;1.42;;
63089;SDS011;49174;43.198;27.824;2022-10-16T08:17:56;5.00;;;1.90;;
63089;SDS011;49174;43.198;27.824;2022-10-16T08:20:23;3.15;;;1.40;;
63089;SDS011;49174;43.198;27.824;2022-10-16T08:22:48;4.53;;;1.73;;
63089;SDS011;49174;43.198;27.824;2022-10-16T08:25:14;2.45;;;1.20;;
63089;SDS011;49174;43.198;27.824;2022-10-16T08:27:39;4.05;;;1.50;;
63089;SDS011;49174;43.198;27.824;2022-10-16T08:30:05;3.40;;;1.23;;
63089;SDS011;49174;43.198;27.824;2022-10-16T08:32:31;2.03;;;1.08;;
63089;SDS011;49174;43.198;27.824;2022-10-16T08:34:57;2.55;;;1.20;;
63089;SDS011;49174;43.198;27.824;2022-10-16T08:37:22;5.25;;;1.45;;
63089;SDS011;49174;43.198;27.824;2022-10-16T08:39:48;4.40;;;1.55;;
63089;SDS011;49174;43.198;27.824;2022-10-16T08:42:19;2.58;;;1.65;;
63089;SDS011;49174;43.198;27.824;2022-10-16T08:47:28;7.07;;;1.60;;
63089;SDS011;49174;43.198;27.824;2022-10-16T08:50:02;2.30;;;1.55;;
63089;SDS011;49174;43.198;27.824;2022-10-16T08:52:35;4.22;;;1.40;;
63089;SDS011;49174;43.198;27.824;2022-10-16T08:55:05;2.30;;;0.95;;
63089;SDS011;49174;43.198;27.824;2022-10-16T08:57:31;2.42;;;1.30;;
63089;SDS011;49174;43.198;27.824;2022-10-16T08:59:59;2.78;;;1.70;;
63089;SDS011;49174;43.198;27.824;2022-10-16T09:02:37;2.47;;;1.73;;
63089;SDS011;49174;43.198;27.824;2022-10-16T09:05:21;2.22;;;1.48;;
63089;SDS011;49174;43.198;27.824;2022-10-16T09:08:09;2.38;;;1.05;;
63089;SDS011;49174;43.198;27.824;2022-10-16T09:13:48;4.68;;;1.80;;
63089;SDS011;49174;43.198;27.824;2022-10-16T09:16:34;3.10;;;1.50;;
63089;SDS011;49174;43.198;27.824;2022-10-16T09:21:40;2.53;;;1.45;;
63089;SDS011;49174;43.198;27.824;2022-10-16T09:24:11;2.72;;;1.40;;
63089;SDS011;49174;43.198;27.824;2022-10-16T09:26:40;6.18;;;1.48;;
63089;SDS011;49174;43.198;27.824;2022-10-16T09:29:05;2.33;;;1.52;;
63089;SDS011;49174;43.198;27.824;2022-10-16T09:31:31;3.88;;;1.42;;
63089;SDS011;49174;43.198;27.824;2022-10-16T09:34:00;3.65;;;1.77;;
63089;SDS011;49174;43.198;27.824;2022-10-16T09:36:34;4.10;;;2.70;;
63089;SDS011;49174;43.198;27.824;2022-10-16T09:39:08;6.70;;;2.80;;
63089;SDS011;49174;43.198;27.824;2022-10-16T09:41:39;9.68;;;6.18;;
63089;SDS011;49174;43.198;27.824;2022-10-16T09:44:40;6.55;;;2.85;;
63089;SDS011;49174;43.198;27.824;2022-10-16T09:49:37;3.10;;;1.80;;
63089;SDS011;49174;43.198;27.824;2022-10-16T09:52:04;3.40;;;1.77;;
63089;SDS011;49174;43.198;27.824;2022-10-16T09:54:31;6.05;;;3.15;;
63089;SDS011;49174;43.198;27.824;2022-10-16T09:57:07;3.35;;;1.67;;
63089;SDS011;49174;43.198;27.824;2022-10-16T09:59:45;5.65;;;1.75;;
63089;SDS011;49174;43.198;27.824;2022-10-16T10:02:11;13.68;;;7.95;;
63089;SDS011;49174;43.198;27.824;2022-10-16T10:04:42;3.38;;;1.92;;
63089;SDS011;49174;43.198;27.824;2022-10-16T10:07:24;3.47;;;1.40;;
63089;SDS011;49174;43.198;27.824;2022-10-16T10:09:59;7.57;;;2.25;;
63089;SDS011;49174;43.198;27.824;2022-10-16T10:12:28;2.85;;;1.40;;
63089;SDS011;49174;43.198;27.824;2022-10-16T10:15:18;2.42;;;1.33;;
63089;SDS011;49174;43.198;27.824;2022-10-16T10:17:49;4.35;;;2.20;;
63089;SDS011;49174;43.198;27.824;2022-10-16T10:22:46;3.35;;;1.10;;
63089;SDS011;49174;43.198;27.824;2022-10-16T10:35:39;4.03;;;1.67;;
63089;SDS011;49174;43.198;27.824;2022-10-16T10:46:31;4.20;;;1.23;;
63089;SDS011;49174;43.198;27.824;2022-10-16T10:54:48;5.53;;;1.45;;
63089;SDS011;49174;43.198;27.824;2022-10-16T10:57:29;1.73;;;1.50;;
63089;SDS011;49174;43.198;27.824;2022-10-16T11:02:36;4.43;;;1.70;;
63089;SDS011;49174;43.198;27.824;2022-10-16T11:08:32;5.03;;;1.45;;
63089;SDS011;49174;43.198;27.824;2022-10-16T11:10:52;5.10;;;1.42;;
63089;SDS011;49174;43.198;27.824;2022-10-16T11:13:24;1.70;;;1.17;;
63089;SDS011;49174;43.198;27.824;2022-10-16T11:16:00;1.52;;;1.10;;
63089;SDS011;49174;43.198;27.824;2022-10-16T11:21:19;2.17;;;1.10;;
63089;SDS011;49174;43.198;27.824;2022-10-16T11:23:50;2.05;;;1.10;;
63089;SDS011;49174;43.198;27.824;2022-10-16T11:26:25;2.05;;;1.10;;
63089;SDS011;49174;43.198;27.824;2022-10-16T11:28:54;4.90;;;1.33;;
63089;SDS011;49174;43.198;27.824;2022-10-16T11:31:29;6.88;;;1.13;;
63089;SDS011;49174;43.198;27.824;2022-10-16T11:34:04;5.60;;;1.48;;
63089;SDS011;49174;43.198;27.824;2022-10-16T11:39:20;2.33;;;1.30;;
63089;SDS011;49174;43.198;27.824;2022-10-16T11:47:42;8.32;;;4.03;;
63089;SDS011;49174;43.198;27.824;2022-10-16T11:53:03;3.00;;;1.42;;
63089;SDS011;49174;43.198;27.824;2022-10-16T11:55:49;2.28;;;1.50;;
63089;SDS011;49174;43.198;27.824;2022-10-16T12:03:40;3.40;;;1.83;;
63089;SDS011;49174;43.198;27.824;2022-10-16T12:08:55;2.33;;;1.33;;
63089;SDS011;49174;43.198;27.824;2022-10-16T12:11:30;3.10;;;1.20;;
63089;SDS011;49174;43.198;27.824;2022-10-16T12:16:37;5.35;;;1.73;;
63089;SDS011;49174;43.198;27.824;2022-10-16T12:19:18;4.13;;;1.65;;
63089;SDS011;49174;43.198;27.824;2022-10-16T12:21:44;4.05;;;1.35;;
63089;SDS011;49174;43.198;27.824;2022-10-16T12:24:43;3.47;;;1.30;;
63089;SDS011;49174;43.198;27.824;2022-10-16T12:27:17;3.47;;;1.40;;
63089;SDS011;49174;43.198;27.824;2022-10-16T12:30:05;4.30;;;1.67;;
63089;SDS011;49174;43.198;27.824;2022-10-16T12:34:57;3.22;;;1.30;;
63089;SDS011;49174;43.198;27.824;2022-10-16T12:37:24;6.32;;;1.65;;
63089;SDS011;49174;43.198;27.824;2022-10-16T12:39:53;4.90;;;1.90;;
63089;SDS011;49174;43.198;27.824;2022-10-16T12:44:52;5.90;;;1.88;;
63089;SDS011;49174;43.198;27.824;2022-10-16T12:47:20;2.97;;;1.75;;
63089;SDS011;49174;43.198;27.824;2022-10-16T12:49:48;3.53;;;1.65;;
63089;SDS011;49174;43.198;27.824;2022-10-16T12:52:25;4.68;;;1.98;;
63089;SDS011;49174;43.198;27.824;2022-10-16T12:55:03;3.35;;;1.50;;
63089;SDS011;49174;43.198;27.824;2022-10-16T13:00:17;3.17;;;1.92;;
63089;SDS011;49174;43.198;27.824;2022-10-16T13:16:49;5.03;;;2.00;;
63089;SDS011;49174;43.198;27.824;2022-10-16T13:19:48;3.65;;;2.00;;
63089;SDS011;49174;43.198;27.824;2022-10-16T13:28:05;2.78;;;1.58;;
63089;SDS011;49174;43.198;27.824;2022-10-16T13:30:42;3.42;;;1.58;;
63089;SDS011;49174;43.198;27.824;2022-10-16T13:35:35;2.10;;;1.52;;
63089;SDS011;49174;43.198;27.824;2022-10-16T13:38:14;5.22;;;1.88;;
63089;SDS011;49174;43.198;27.824;2022-10-16T13:40:49;2.72;;;1.60;;
63089;SDS011;49174;43.198;27.824;2022-10-16T13:43:18;3.83;;;2.00;;
63089;SDS011;49174;43.198;27.824;2022-10-16T13:46:00;13.40;;;6.55;;
63089;SDS011;49174;43.198;27.824;2022-10-16T13:48:28;5.15;;;2.38;;
63089;SDS011;49174;43.198;27.824;2022-10-16T13:51:00;5.28;;;2.35;;
63089;SDS011;49174;43.198;27.824;2022-10-16T13:53:25;6.38;;;1.80;;
63089;SDS011;49174;43.198;27.824;2022-10-16T13:55:51;4.95;;;1.98;;
63089;SDS011;49174;43.198;27.824;2022-10-16T13:58:17;3.22;;;1.65;;
63089;SDS011;49174;43.198;27.824;2022-10-16T14:00:52;2.38;;;1.70;;
63089;SDS011;49174;43.198;27.824;2022-10-16T14:03:23;2.88;;;1.63;;
63089;SDS011;49174;43.198;27.824;2022-10-16T14:05:58;5.85;;;2.00;;
63089;SDS011;49174;43.198;27.824;2022-10-16T14:08:26;3.15;;;1.65;;
63089;SDS011;49174;43.198;27.824;2022-10-16T14:10:58;2.88;;;1.65;;
63089;SDS011;49174;43.198;27.824;2022-10-16T14:13:30;2.45;;;1.70;;
63089;SDS011;49174;43.198;27.824;2022-10-16T14:16:00;5.13;;;1.80;;
63089;SDS011;49174;43.198;27.824;2022-10-16T14:18:32;3.30;;;1.65;;
63089;SDS011;49174;43.198;27.824;2022-10-16T14:21:11;2.70;;;1.65;;
63089;SDS011;49174;43.198;27.824;2022-10-16T14:23:40;2.60;;;1.50;;
63089;SDS011;49174;43.198;27.824;2022-10-16T14:28:35;7.70;;;3.53;;
63089;SDS011;49174;43.198;27.824;2022-10-16T14:31:02;6.45;;;3.63;;
63089;SDS011;49174;43.198;27.824;2022-10-16T14:33:47;3.33;;;1.60;;
63089;SDS011;49174;43.198;27.824;2022-10-16T14:36:13;2.83;;;1.50;;
63089;SDS011;49174;43.198;27.824;2022-10-16T14:38:42;3.10;;;1.65;;
63089;SDS011;49174;43.198;27.824;2022-10-16T14:41:14;2.97;;;1.30;;
63089;SDS011;49174;43.198;27.824;2022-10-16T14:43:41;1.80;;;1.42;;
63089;SDS011;49174;43.198;27.824;2022-10-16T14:46:15;2.17;;;1.55;;
63089;SDS011;49174;43.198;27.824;2022-10-16T14:48:43;2.55;;;1.45;;
63089;SDS011;49174;43.198;27.824;2022-10-16T14:51:15;4.22;;;1.40;;
63089;SDS011;49174;43.198;27.824;2022-10-16T14:53:41;2.58;;;1.50;;
63089;SDS011;49174;43.198;27.824;2022-10-16T14:56:07;1.45;;;1.20;;
63089;SDS011;49174;43.198;27.824;2022-10-16T14:58:39;3.08;;;1.42;;
63089;SDS011;49174;43.198;27.824;2022-10-16T15:01:05;5.10;;;1.70;;
63089;SDS011;49174;43.198;27.824;2022-10-16T15:03:32;3.97;;;1.60;;
63089;SDS011;49174;43.198;27.824;2022-10-16T15:05:57;3.97;;;1.80;;
63089;SDS011;49174;43.198;27.824;2022-10-16T15:08:23;4.68;;;1.55;;
63089;SDS011;49174;43.198;27.824;2022-10-16T15:10:48;6.75;;;1.50;;
63089;SDS011;49174;43.198;27.824;2022-10-16T15:13:14;2.72;;;1.63;;
63089;SDS011;49174;43.198;27.824;2022-10-16T15:15:43;2.53;;;1.38;;
63089;SDS011;49174;43.198;27.824;2022-10-16T15:18:10;2.88;;;1.40;;
63089;SDS011;49174;43.198;27.824;2022-10-16T15:20:37;2.70;;;1.48;;
63089;SDS011;49174;43.198;27.824;2022-10-16T15:23:14;3.83;;;1.13;;
63089;SDS011;49174;43.198;27.824;2022-10-16T15:25:42;9.88;;;4.13;;
63089;SDS011;49174;43.198;27.824;2022-10-16T15:28:18;9.75;;;3.80;;
63089;SDS011;49174;43.198;27.824;2022-10-16T15:30:45;4.93;;;1.77;;
63089;SDS011;49174;43.198;27.824;2022-10-16T15:33:21;3.33;;;1.55;;
63089;SDS011;49174;43.198;27.824;2022-10-16T15:35:57;3.35;;;1.40;;
63089;SDS011;49174;43.198;27.824;2022-10-16T15:38:23;5.63;;;2.63;;
63089;SDS011;49174;43.198;27.824;2022-10-16T15:40:51;2.13;;;1.30;;
63089;SDS011;49174;43.198;27.824;2022-10-16T15:43:17;2.40;;;1.10;;
63089;SDS011;49174;43.198;27.824;2022-10-16T15:45:43;3.75;;;1.38;;
63089;SDS011;49174;43.198;27.824;2022-10-16T15:48:12;4.55;;;1.60;;
63089;SDS011;49174;43.198;27.824;2022-10-16T15:50:39;3.38;;;1.75;;
63089;SDS011;49174;43.198;27.824;2022-10-16T15:53:05;2.53;;;1.50;;
63089;SDS011;49174;43.198;27.824;2022-10-16T15:55:30;2.88;;;1.60;;
63089;SDS011;49174;43.198;27.824;2022-10-16T15:57:56;3.13;;;1.80;;
63089;SDS011;49174;43.198;27.824;2022-10-16T16:00:21;4.70;;;1.65;;
63089;SDS011;49174;43.198;27.824;2022-10-16T16:02:51;5.00;;;1.98;;
63089;SDS011;49174;43.198;27.824;2022-10-16T16:05:18;4.35;;;1.90;;
63089;SDS011;49174;43.198;27.824;2022-10-16T16:07:45;3.78;;;1.77;;
63089;SDS011;49174;43.198;27.824;2022-10-16T16:10:11;4.85;;;1.88;;
63089;SDS011;49174;43.198;27.824;2022-10-16T16:12:37;4.90;;;1.63;;
63089;SDS011;49174;43.198;27.824;2022-10-16T16:15:04;3.08;;;1.60;;
63089;SDS011;49174;43.198;27.824;2022-10-16T16:17:31;4.97;;;1.98;;
63089;SDS011;49174;43.198;27.824;2022-10-16T16:19:58;4.78;;;1.58;;
63089;SDS011;49174;43.198;27.824;2022-10-16T16:22:23;5.22;;;2.20;;
63089;SDS011;49174;43.198;27.824;2022-10-16T16:24:49;2.70;;;1.83;;
63089;SDS011;49174;43.198;27.824;2022-10-16T16:27:15;5.43;;;2.22;;
63089;SDS011;49174;43.198;27.824;2022-10-16T16:29:40;3.80;;;2.03;;
63089;SDS011;49174;43.198;27.824;2022-10-16T16:32:06;4.03;;;1.98;;
63089;SDS011;49174;43.198;27.824;2022-10-16T16:34:31;4.97;;;2.42;;
63089;SDS011;49174;43.198;27.824;2022-10-16T16:36:57;3.80;;;2.42;;
63089;SDS011;49174;43.198;27.824;2022-10-16T16:39:23;7.07;;;2.40;;
63089;SDS011;49174;43.198;27.824;2022-10-16T16:41:48;6.38;;;2.17;;
63089;SDS011;49174;43.198;27.824;2022-10-16T16:44:14;5.13;;;2.35;;
63089;SDS011;49174;43.198;27.824;2022-10-16T16:46:41;5.55;;;2.28;;
63089;SDS011;49174;43.198;27.824;2022-10-16T16:49:11;3.72;;;2.38;;